Time;durP1;ratioP1;P1;durP2;ratioP2;P2;SDS_P1;SDS_P2;PMS_P1;PMS_P2;Temp;Humidity;BMP_temperature;BMP_pressure;BME280_temperature;BME280_humidity;BME280_pressure;Samples;Min_cycle;Max_cycle;Signal;HPM_P1;HPM_P2
2023/01/24 00:00:43;;;;;;;;;;;-3.40;99.90;;;;;;5053744;28;19913;-77
2023/01/24 00:03:12;;;;;;;;;;;-3.50;99.90;;;;;;5054977;28;19920;-76
2023/01/24 00:05:39;;;;;;;;;;;-3.50;99.90;;;;;;5054641;28;19913;-77
2023/01/24 00:08:04;;;;;;;;;;;-3.50;99.90;;;;;;5053536;28;19909;-77
2023/01/24 00:10:31;;;;;;;;;;;-3.50;99.90;;;;;;5054792;28;19913;-77
2023/01/24 00:12:57;;;;;;;;;;;-3.60;99.90;;;;;;5054957;28;20015;-76
2023/01/24 00:15:22;;;;;;;;;;;-3.70;99.90;;;;;;5054660;28;19951;-77
2023/01/24 00:17:48;;;;;;;;;;;-3.70;99.90;;;;;;5054563;28;19909;-77
2023/01/24 00:20:13;;;;;;;;;;;-3.70;99.90;;;;;;5054646;28;20429;-76
2023/01/24 00:22:39;;;;;;;;;;;-3.70;99.90;;;;;;5053559;28;19909;-76
2023/01/24 00:25:05;;;;;;;;;;;-3.70;99.90;;;;;;5054837;28;19913;-77
2023/01/24 00:27:31;;;;;;;;;;;-3.80;99.90;;;;;;5053440;28;19970;-77
2023/01/24 00:29:57;;;;;;;;;;;-3.80;99.90;;;;;;5054427;28;20380;-77
2023/01/24 00:32:22;;;;;;;;;;;-3.80;99.90;;;;;;5054655;28;20012;-78
2023/01/24 00:34:48;;;;;;;;;;;-3.80;99.90;;;;;;5054145;28;19909;-76
2023/01/24 00:37:13;;;;;;;;;;;-3.90;99.90;;;;;;5053507;28;20369;-77
2023/01/24 00:39:39;;;;;;;;;;;-3.90;99.90;;;;;;5054288;28;20313;-78
2023/01/24 00:42:04;;;;;;;;;;;-3.90;99.90;;;;;;5055034;28;20352;-77
2023/01/24 00:44:30;;;;;;;;;;;-3.90;99.90;;;;;;5054538;28;20281;-77
2023/01/24 00:46:55;;;;;;;;;;;-4.00;99.90;;;;;;5054225;28;19994;-76
2023/01/24 00:49:21;;;;;;;;;;;-4.00;99.90;;;;;;5054019;28;19963;-77
2023/01/24 00:51:47;;;;;;;;;;;-4.00;99.90;;;;;;5053870;28;19924;-76
2023/01/24 00:54:12;;;;;;;;;;;-4.00;99.90;;;;;;5052770;28;19924;-76
2023/01/24 00:56:38;;;;;;;;;;;-4.00;99.90;;;;;;5034139;28;19923;-77
2023/01/24 00:59:03;;;;;;;;;;;-4.00;99.90;;;;;;5034270;28;19919;-76
2023/01/24 01:01:29;;;;;;;;;;;-4.00;99.90;;;;;;5033889;28;19913;-77
2023/01/24 01:03:55;;;;;;;;;;;-4.00;99.90;;;;;;5033870;28;19917;-76
2023/01/24 01:06:21;;;;;;;;;;;-4.00;99.90;;;;;;5033884;28;20332;-76
2023/01/24 01:08:47;;;;;;;;;;;-4.00;99.90;;;;;;5033891;28;19913;-77
2023/01/24 01:11:12;;;;;;;;;;;-4.10;99.90;;;;;;5034212;28;20357;-77
2023/01/24 01:13:38;;;;;;;;;;;-4.10;99.90;;;;;;5033787;28;19947;-77
2023/01/24 01:16:11;;;;;;;;;;;-4.10;99.90;;;;;;5034175;28;19959;-76
2023/01/24 01:18:37;;;;;;;;;;;-4.10;99.90;;;;;;5046539;28;19967;-77
2023/01/24 01:21:03;;;;;;;;;;;-4.10;99.90;;;;;;5053414;28;19962;-77
2023/01/24 01:23:28;;;;;;;;;;;-4.20;99.90;;;;;;5053746;28;19909;-77
2023/01/24 01:25:58;;;;;;;;;;;-4.20;99.90;;;;;;5052794;28;20067;-77
2023/01/24 01:28:23;;;;;;;;;;;-4.20;99.90;;;;;;5052229;28;19912;-77
2023/01/24 01:30:52;;;;;;;;;;;-4.20;99.90;;;;;;5053666;28;19913;-77
2023/01/24 01:33:17;;;;;;;;;;;-4.30;99.90;;;;;;5053521;28;19913;-77
2023/01/24 01:35:43;;;;;;;;;;;-4.30;99.90;;;;;;5053360;28;19920;-77
2023/01/24 01:38:09;;;;;;;;;;;-4.40;99.90;;;;;;5053561;28;19948;-77
2023/01/24 01:40:34;;;;;;;;;;;-4.40;99.90;;;;;;5053905;28;19913;-77
2023/01/24 01:43:00;;;;;;;;;;;-4.50;99.90;;;;;;5053182;28;20375;-77
2023/01/24 01:45:42;;;;;;;;;;;-4.60;99.90;;;;;;5052599;28;19913;-77
2023/01/24 01:48:19;;;;;;;;;;;-4.70;99.90;;;;;;5053316;28;19936;-76
2023/01/24 01:51:05;;;;;;;;;;;-4.80;99.90;;;;;;5053208;28;19915;-76
2023/01/24 01:53:34;;;;;;;;;;;-4.80;99.90;;;;;;5052920;28;20007;-76
2023/01/24 01:56:13;;;;;;;;;;;-4.90;99.90;;;;;;5053708;28;19909;-77
2023/01/24 01:58:39;;;;;;;;;;;-4.90;99.90;;;;;;5053589;28;19909;-76
2023/01/24 02:01:05;;;;;;;;;;;-4.90;99.90;;;;;;5052748;28;19916;-77
2023/01/24 02:03:43;;;;;;;;;;;-4.80;99.90;;;;;;5053539;28;19917;-77
2023/01/24 02:06:32;;;;;;;;;;;-4.90;99.90;;;;;;5053188;28;20316;-77
2023/01/24 02:08:59;;;;;;;;;;;-4.90;99.90;;;;;;5053459;28;20361;-77
2023/01/24 02:11:40;;;;;;;;;;;-4.90;99.90;;;;;;5053228;28;19935;-77
2023/01/24 02:16:51;;;;;;;;;;;-4.90;99.90;;;;;;5057321;28;19932;-77
2023/01/24 02:19:22;;;;;;;;;;;-5.00;99.90;;;;;;5056791;28;19916;-77
2023/01/24 02:21:49;;;;;;;;;;;-5.10;99.90;;;;;;5056728;28;19909;-77
2023/01/24 02:24:26;;;;;;;;;;;-5.10;99.90;;;;;;5055569;28;20448;-77
2023/01/24 02:26:51;;;;;;;;;;;-5.10;99.90;;;;;;5057106;28;20459;-77
2023/01/24 02:29:17;;;;;;;;;;;-5.10;99.90;;;;;;5056677;28;19921;-77
2023/01/24 02:31:56;;;;;;;;;;;-5.10;99.90;;;;;;5056733;28;19912;-77
2023/01/24 02:34:22;;;;;;;;;;;-5.00;99.90;;;;;;5056592;28;19986;-77
2023/01/24 02:36:50;;;;;;;;;;;-5.00;99.90;;;;;;5056335;28;19995;-77
2023/01/24 02:39:18;;;;;;;;;;;-5.00;99.90;;;;;;5055227;28;20116;-77
2023/01/24 02:41:52;;;;;;;;;;;-5.00;99.90;;;;;;5057018;28;20374;-77
2023/01/24 02:44:21;;;;;;;;;;;-5.10;99.90;;;;;;5056457;28;19908;-77
2023/01/24 02:46:46;;;;;;;;;;;-5.10;99.90;;;;;;5056756;28;19938;-77
2023/01/24 02:49:12;;;;;;;;;;;-5.20;99.90;;;;;;5056335;28;19912;-77
2023/01/24 02:54:21;;;;;;;;;;;-5.10;99.90;;;;;;5056556;28;20307;-77
2023/01/24 02:59:31;;;;;;;;;;;-5.10;99.90;;;;;;5056196;28;19974;-77
2023/01/24 03:01:57;;;;;;;;;;;-5.10;99.90;;;;;;5056493;28;20361;-77
2023/01/24 03:04:23;;;;;;;;;;;-5.10;99.90;;;;;;5056175;28;19909;-77
2023/01/24 03:06:48;;;;;;;;;;;-5.10;99.90;;;;;;5055874;28;19919;-77
2023/01/24 03:09:33;;;;;;;;;;;-5.10;99.90;;;;;;5054830;28;20369;-77
2023/01/24 03:36:37;;;;;;;;;;;-5.50;99.90;;;;;;5055569;28;19924;-77
2023/01/24 03:41:47;;;;;;;;;;;-5.60;99.90;;;;;;5055988;28;19966;-76
2023/01/24 03:44:12;;;;;;;;;;;-5.60;99.90;;;;;;5055332;28;19999;-77
2023/01/24 03:46:39;;;;;;;;;;;-5.60;99.90;;;;;;5055279;28;19916;-77
2023/01/24 03:49:06;;;;;;;;;;;-5.60;99.90;;;;;;5055203;28;19920;-77
2023/01/24 03:54:16;;;;;;;;;;;-5.60;99.90;;;;;;5055555;28;19919;-76
2023/01/24 03:56:41;;;;;;;;;;;-5.50;99.90;;;;;;5055929;28;20319;-77
2023/01/24 03:59:07;;;;;;;;;;;-5.50;99.90;;;;;;5055033;28;20000;-77
2023/01/24 04:01:32;;;;;;;;;;;-5.50;99.90;;;;;;5055578;28;19912;-76
2023/01/24 04:03:58;;;;;;;;;;;-5.50;99.90;;;;;;5054956;28;19912;-77
2023/01/24 04:06:24;;;;;;;;;;;-5.50;99.90;;;;;;5054789;28;20318;-77
2023/01/24 04:08:50;;;;;;;;;;;-5.50;99.90;;;;;;5055394;28;20008;-77
2023/01/24 04:11:16;;;;;;;;;;;-5.50;99.90;;;;;;5054765;28;19916;-77
2023/01/24 04:13:42;;;;;;;;;;;-5.50;99.90;;;;;;5054998;28;20388;-76
2023/01/24 04:16:08;;;;;;;;;;;-5.50;99.90;;;;;;5054692;28;19974;-77
2023/01/24 04:18:36;;;;;;;;;;;-5.60;99.90;;;;;;5054700;28;19913;-77
2023/01/24 04:21:02;;;;;;;;;;;-5.60;99.90;;;;;;5054552;28;19913;-77
2023/01/24 04:23:28;;;;;;;;;;;-5.60;99.90;;;;;;5054577;28;19917;-77
2023/01/24 04:25:56;;;;;;;;;;;-5.70;99.90;;;;;;5054549;28;19919;-77
2023/01/24 04:28:22;;;;;;;;;;;-5.70;99.90;;;;;;5054599;28;20289;-76
2023/01/24 04:30:48;;;;;;;;;;;-5.80;99.90;;;;;;5054777;28;20004;-77
2023/01/24 04:33:13;;;;;;;;;;;-5.80;99.90;;;;;;5054667;28;20015;-76
2023/01/24 04:35:39;;;;;;;;;;;-5.80;99.90;;;;;;5054120;28;19913;-77
2023/01/24 04:38:05;;;;;;;;;;;-5.70;99.90;;;;;;5052390;28;19912;-77
2023/01/24 04:40:30;;;;;;;;;;;-5.80;99.90;;;;;;5054188;28;19912;-77
2023/01/24 04:42:56;;;;;;;;;;;-5.90;99.90;;;;;;5053618;28;19913;-77
2023/01/24 04:45:22;;;;;;;;;;;-5.90;99.90;;;;;;5053522;28;20067;-77
2023/01/24 04:47:47;;;;;;;;;;;-5.90;99.90;;;;;;5053564;28;20389;-77
2023/01/24 04:50:13;;;;;;;;;;;-5.90;99.90;;;;;;5050202;28;19971;-77
2023/01/24 04:52:39;;;;;;;;;;;-6.00;99.90;;;;;;5032449;28;19913;-77
2023/01/24 04:55:05;;;;;;;;;;;-5.90;99.90;;;;;;5053987;28;19917;-77
2023/01/24 04:57:30;;;;;;;;;;;-5.90;99.90;;;;;;5053955;28;19971;-77
2023/01/24 04:59:56;;;;;;;;;;;-5.80;99.90;;;;;;5053792;28;20377;-77
2023/01/24 05:02:22;;;;;;;;;;;-5.80;99.90;;;;;;5053742;28;19920;-77
2023/01/24 05:04:47;;;;;;;;;;;-5.80;99.90;;;;;;5053770;28;19913;-77
2023/01/24 05:07:13;;;;;;;;;;;-5.80;99.90;;;;;;5052073;28;20000;-77
2023/01/24 05:09:38;;;;;;;;;;;-5.70;99.90;;;;;;5052896;28;19958;-77
2023/01/24 05:12:04;;;;;;;;;;;-5.70;99.90;;;;;;5053761;28;19908;-77
2023/01/24 05:14:31;;;;;;;;;;;-5.70;99.90;;;;;;5053104;28;20487;-76
2023/01/24 05:16:57;;;;;;;;;;;-5.70;99.90;;;;;;5052413;28;19920;-77
2023/01/24 05:19:22;;;;;;;;;;;-5.70;99.90;;;;;;5053623;28;19912;-77
2023/01/24 05:21:48;;;;;;;;;;;-5.80;99.90;;;;;;5053535;28;19912;-76
2023/01/24 05:24:14;;;;;;;;;;;-5.70;99.90;;;;;;5053658;28;19920;-77
2023/01/24 05:26:39;;;;;;;;;;;-5.80;99.90;;;;;;5053644;28;19919;-76
2023/01/24 05:29:05;;;;;;;;;;;-5.90;99.90;;;;;;5053700;28;19973;-76
2023/01/24 05:31:30;;;;;;;;;;;-5.90;99.90;;;;;;5053862;28;19952;-77
2023/01/24 05:33:56;;;;;;;;;;;-6.00;99.90;;;;;;5053546;28;19913;-77
2023/01/24 05:36:23;;;;;;;;;;;-6.00;99.90;;;;;;5052361;28;19912;-77
2023/01/24 05:38:49;;;;;;;;;;;-6.00;99.90;;;;;;5053562;28;19920;-76
2023/01/24 05:41:18;;;;;;;;;;;-6.00;99.90;;;;;;5053535;28;19908;-76
2023/01/24 05:43:44;;;;;;;;;;;-6.00;99.90;;;;;;5053484;28;19915;-76
2023/01/24 05:46:11;;;;;;;;;;;-6.00;99.90;;;;;;5053497;28;19920;-76
2023/01/24 05:48:36;;;;;;;;;;;-5.90;99.90;;;;;;5053984;28;19913;-76
2023/01/24 05:51:04;;;;;;;;;;;-5.90;99.90;;;;;;5057300;28;19931;-76
2023/01/24 05:53:30;;;;;;;;;;;-6.00;99.90;;;;;;5056036;28;19913;-76
2023/01/24 05:55:56;;;;;;;;;;;-6.00;99.90;;;;;;5058280;28;20292;-76
2023/01/24 05:58:22;;;;;;;;;;;-6.00;99.90;;;;;;5056037;28;19919;-76
2023/01/24 06:00:47;;;;;;;;;;;-6.00;99.90;;;;;;5057644;28;20284;-76
2023/01/24 06:03:13;;;;;;;;;;;-6.00;99.90;;;;;;5057537;28;19913;-76
2023/01/24 06:05:38;;;;;;;;;;;-6.00;99.90;;;;;;5056970;28;19912;-77
2023/01/24 06:08:04;;;;;;;;;;;-6.00;99.90;;;;;;5057251;28;19981;-76
2023/01/24 06:10:30;;;;;;;;;;;-6.00;99.90;;;;;;5057111;28;19913;-77
2023/01/24 06:12:55;;;;;;;;;;;-6.00;99.90;;;;;;5055837;28;19924;-76
2023/01/24 06:15:21;;;;;;;;;;;-5.90;99.90;;;;;;5056022;28;19919;-76
2023/01/24 06:17:46;;;;;;;;;;;-6.00;99.90;;;;;;5057080;28;19971;-77
2023/01/24 06:20:12;;;;;;;;;;;-6.00;99.90;;;;;;5056957;28;19912;-77
2023/01/24 06:22:43;;;;;;;;;;;-6.00;99.90;;;;;;5056741;28;19917;-77
2023/01/24 06:25:16;;;;;;;;;;;-6.10;99.90;;;;;;5056700;28;19916;-77
2023/01/24 06:27:41;;;;;;;;;;;-6.10;99.90;;;;;;5057371;28;19944;-77
2023/01/24 06:30:08;;;;;;;;;;;-6.00;99.90;;;;;;5055637;28;19952;-77
2023/01/24 06:32:52;;;;;;;;;;;-6.10;99.90;;;;;;5056876;28;19913;-77
2023/01/24 06:35:21;;;;;;;;;;;-6.10;99.90;;;;;;5056799;28;19909;-77
2023/01/24 06:37:48;;;;;;;;;;;-6.10;99.90;;;;;;5056504;28;19912;-77
2023/01/24 06:40:15;;;;;;;;;;;-6.10;99.90;;;;;;5056778;28;19909;-77
2023/01/24 06:42:40;;;;;;;;;;;-6.10;99.90;;;;;;5057012;28;19909;-77
2023/01/24 06:45:06;;;;;;;;;;;-6.10;99.90;;;;;;5055607;28;19920;-77
2023/01/24 06:47:32;;;;;;;;;;;-6.20;99.90;;;;;;5056555;28;20435;-77
2023/01/24 06:49:57;;;;;;;;;;;-6.20;99.90;;;;;;5056380;28;19913;-77
2023/01/24 06:52:23;;;;;;;;;;;-6.20;99.90;;;;;;5056338;28;19909;-77
2023/01/24 06:54:49;;;;;;;;;;;-6.30;99.90;;;;;;5056293;28;19912;-77
2023/01/24 06:57:14;;;;;;;;;;;-6.30;99.90;;;;;;5056879;28;19909;-77
2023/01/24 06:59:40;;;;;;;;;;;-6.40;99.90;;;;;;5056312;28;20296;-77
2023/01/24 07:02:06;;;;;;;;;;;-6.40;99.90;;;;;;5055489;28;19909;-77
2023/01/24 07:04:31;;;;;;;;;;;-6.40;99.90;;;;;;5056194;28;19917;-77
2023/01/24 07:06:57;;;;;;;;;;;-6.40;99.90;;;;;;5056119;28;19916;-77
2023/01/24 07:09:23;;;;;;;;;;;-6.40;99.90;;;;;;5056059;28;19919;-77
2023/01/24 07:11:52;;;;;;;;;;;-6.30;99.90;;;;;;5056050;28;19913;-77
2023/01/24 07:14:18;;;;;;;;;;;-6.30;99.90;;;;;;5055941;28;19919;-77
2023/01/24 07:16:43;;;;;;;;;;;-6.30;99.90;;;;;;5056270;28;19909;-77
2023/01/24 07:19:13;;;;;;;;;;;-6.20;99.90;;;;;;5055797;28;19909;-77
2023/01/24 07:21:39;;;;;;;;;;;-6.20;99.90;;;;;;5054332;28;19915;-77
2023/01/24 07:24:09;;;;;;;;;;;-6.20;99.90;;;;;;5055894;28;19913;-77
2023/01/24 07:26:35;;;;;;;;;;;-6.20;99.90;;;;;;5055666;28;19909;-77
2023/01/24 07:29:00;;;;;;;;;;;-6.20;99.90;;;;;;5055479;28;19921;-77
2023/01/24 07:31:26;;;;;;;;;;;-6.20;99.90;;;;;;5055664;28;20512;-77
2023/01/24 07:33:51;;;;;;;;;;;-6.30;99.90;;;;;;5055776;28;19956;-76
2023/01/24 07:36:17;;;;;;;;;;;-6.30;99.90;;;;;;5055669;28;19967;-77
2023/01/24 07:38:43;;;;;;;;;;;-6.30;99.90;;;;;;5055669;28;19940;-77
2023/01/24 07:41:09;;;;;;;;;;;-6.20;99.90;;;;;;5055704;28;19920;-77
2023/01/24 07:43:34;;;;;;;;;;;-6.20;99.90;;;;;;5055992;28;20377;-77
2023/01/24 07:46:00;;;;;;;;;;;-6.30;99.90;;;;;;5055338;28;19913;-77
2023/01/24 07:48:25;;;;;;;;;;;-6.20;99.90;;;;;;5055320;28;20007;-77
2023/01/24 07:50:51;;;;;;;;;;;-6.20;99.90;;;;;;5055060;28;19916;-77
2023/01/24 07:53:16;;;;;;;;;;;-6.10;99.90;;;;;;5055434;28;19921;-77
2023/01/24 07:55:42;;;;;;;;;;;-6.10;99.90;;;;;;5055187;28;19913;-77
2023/01/24 07:58:07;;;;;;;;;;;-6.00;99.90;;;;;;5055561;28;19913;-77
2023/01/24 08:00:33;;;;;;;;;;;-6.10;99.90;;;;;;5055355;28;19916;-77
2023/01/24 08:02:58;;;;;;;;;;;-6.10;99.90;;;;;;5055109;28;19917;-77
2023/01/24 08:05:24;;;;;;;;;;;-6.10;99.90;;;;;;5055654;28;20004;-77
2023/01/24 08:07:50;;;;;;;;;;;-6.00;99.90;;;;;;5054677;28;19909;-77
2023/01/24 08:10:16;;;;;;;;;;;-6.10;99.90;;;;;;5054926;28;19948;-77
2023/01/24 08:12:41;;;;;;;;;;;-6.00;99.90;;;;;;5053760;28;19912;-77
2023/01/24 08:15:07;;;;;;;;;;;-5.90;99.90;;;;;;5055413;28;19963;-77
2023/01/24 08:17:36;;;;;;;;;;;-5.90;99.90;;;;;;5054748;28;19966;-77
2023/01/24 08:20:02;;;;;;;;;;;-5.90;99.90;;;;;;5053379;28;19909;-77
2023/01/24 08:22:28;;;;;;;;;;;-5.80;99.90;;;;;;5054591;28;19920;-77
2023/01/24 08:24:53;;;;;;;;;;;-5.80;99.90;;;;;;5053476;28;19913;-77
2023/01/24 08:27:19;;;;;;;;;;;-5.80;99.90;;;;;;5054552;28;20452;-77
2023/01/24 08:29:44;;;;;;;;;;;-5.70;99.90;;;;;;5054484;28;20293;-77
2023/01/24 08:32:10;;;;;;;;;;;-5.70;99.90;;;;;;5054591;28;20288;-77
2023/01/24 08:34:36;;;;;;;;;;;-5.60;99.90;;;;;;5054501;28;19916;-77
2023/01/24 08:37:01;;;;;;;;;;;-5.60;99.90;;;;;;5054357;28;19960;-77
2023/01/24 08:39:27;;;;;;;;;;;-5.60;99.90;;;;;;5053091;28;19924;-77
2023/01/24 08:41:52;;;;;;;;;;;-5.60;99.90;;;;;;5054333;28;19912;-77
2023/01/24 08:44:18;;;;;;;;;;;-5.60;99.90;;;;;;5054580;28;20297;-77
2023/01/24 08:46:43;;;;;;;;;;;-5.60;99.90;;;;;;5054241;28;19919;-77
2023/01/24 08:49:09;;;;;;;;;;;-5.60;99.90;;;;;;5054075;28;19963;-77
2023/01/24 08:51:35;;;;;;;;;;;-5.60;99.90;;;;;;5054118;28;20015;-77
2023/01/24 08:54:01;;;;;;;;;;;-5.60;99.90;;;;;;5054335;28;19955;-77
2023/01/24 08:56:26;;;;;;;;;;;-5.60;99.90;;;;;;5054119;28;19991;-77
2023/01/24 08:58:52;;;;;;;;;;;-5.50;99.90;;;;;;5054572;28;19916;-77
2023/01/24 09:01:18;;;;;;;;;;;-5.50;99.90;;;;;;5054340;28;20258;-77
2023/01/24 09:03:43;;;;;;;;;;;-5.40;99.90;;;;;;5054001;28;19913;-77
2023/01/24 09:06:09;;;;;;;;;;;-5.40;99.90;;;;;;5053725;28;20015;-77
2023/01/24 09:08:35;;;;;;;;;;;-5.30;99.90;;;;;;5054020;28;19920;-77
2023/01/24 09:11:01;;;;;;;;;;;-5.30;99.90;;;;;;5053652;28;19913;-77
2023/01/24 09:13:26;;;;;;;;;;;-5.20;99.90;;;;;;5053810;28;20100;-77
2023/01/24 09:15:52;;;;;;;;;;;-5.10;99.90;;;;;;5053910;28;19997;-77
2023/01/24 09:18:17;;;;;;;;;;;-5.00;99.90;;;;;;5053788;28;20364;-77
2023/01/24 09:20:43;;;;;;;;;;;-4.90;99.90;;;;;;5054092;28;20276;-77
2023/01/24 09:23:11;;;;;;;;;;;-4.90;99.90;;;;;;5052109;28;19916;-77
2023/01/24 09:25:37;;;;;;;;;;;-4.80;99.90;;;;;;5054047;28;20373;-78
2023/01/24 09:28:03;;;;;;;;;;;-4.80;99.90;;;;;;5053799;28;19908;-77
2023/01/24 09:30:28;;;;;;;;;;;-4.60;99.90;;;;;;5054020;28;19981;-77
2023/01/24 09:32:54;;;;;;;;;;;-4.60;99.90;;;;;;5053653;28;20365;-78
2023/01/24 09:35:19;;;;;;;;;;;-4.60;99.90;;;;;;5053756;28;20269;-77
2023/01/24 09:37:45;;;;;;;;;;;-4.60;99.90;;;;;;5052089;28;19920;-77
2023/01/24 09:40:25;;;;;;;;;;;-4.70;99.90;;;;;;5053851;28;19920;-77
2023/01/24 09:43:05;;;;;;;;;;;-4.60;99.90;;;;;;5053554;28;19909;-77
2023/01/24 09:45:35;;;;;;;;;;;-4.60;99.90;;;;;;5053516;28;20062;-77
2023/01/24 09:48:02;;;;;;;;;;;-4.60;99.90;;;;;;5053283;28;20335;-77
2023/01/24 09:50:40;;;;;;;;;;;-4.50;99.90;;;;;;5053454;28;20008;-77
2023/01/24 09:53:13;;;;;;;;;;;-4.50;99.90;;;;;;5053130;28;19919;-77
2023/01/24 09:55:42;;;;;;;;;;;-4.40;99.90;;;;;;5053718;28;19908;-77
2023/01/24 09:58:28;;;;;;;;;;;-4.30;99.90;;;;;;5053383;28;19916;-77
2023/01/24 10:00:54;;;;;;;;;;;-4.10;99.90;;;;;;5053348;28;19909;-77
2023/01/24 10:03:21;;;;;;;;;;;-4.00;99.90;;;;;;5053285;28;19954;-77
2023/01/24 10:05:48;;;;;;;;;;;-3.90;99.90;;;;;;5053687;28;20345;-77
2023/01/24 10:08:32;;;;;;;;;;;-3.70;99.90;;;;;;5053106;28;19913;-77
2023/01/24 10:11:15;;;;;;;;;;;-3.50;99.90;;;;;;5053301;28;19920;-77
2023/01/24 10:13:50;;;;;;;;;;;-3.40;99.90;;;;;;5053204;28;19913;-77
2023/01/24 10:16:20;;;;;;;;;;;-3.20;99.90;;;;;;5052063;28;19909;-77
2023/01/24 10:19:04;;;;;;;;;;;-3.10;99.90;;;;;;5053226;28;19963;-77
2023/01/24 10:21:45;;;;;;;;;;;-3.00;99.90;;;;;;5053011;28;20360;-77
2023/01/24 10:24:32;;;;;;;;;;;-2.90;99.90;;;;;;5052068;28;20273;-77
2023/01/24 10:26:57;;;;;;;;;;;-2.80;99.90;;;;;;5053304;28;19913;-77
2023/01/24 10:29:24;;;;;;;;;;;-2.70;99.90;;;;;;5053092;28;19928;-77
2023/01/24 10:32:25;;;;;;;;;;;-2.60;99.90;;;;;;5051865;28;19908;-77
2023/01/24 10:34:54;;;;;;;;;;;-2.40;99.90;;;;;;4972839;28;19964;-77
2023/01/24 10:37:22;;;;;;;;;;;-2.40;99.90;;;;;;5040930;28;19955;-77
2023/01/24 10:39:47;;;;;;;;;;;-2.20;99.90;;;;;;5056880;28;19913;-77
2023/01/24 10:42:23;;;;;;;;;;;-2.10;99.90;;;;;;5057060;28;20250;-77
2023/01/24 10:44:50;;;;;;;;;;;-1.90;99.90;;;;;;5056867;28;20416;-77
2023/01/24 10:47:34;;;;;;;;;;;-1.80;99.90;;;;;;5056447;28;19913;-77
2023/01/24 10:50:25;;;;;;;;;;;-1.70;99.90;;;;;;5056998;28;20273;-77
2023/01/24 10:52:51;;;;;;;;;;;-1.60;99.90;;;;;;5051396;28;19916;-77
2023/01/24 10:55:42;;;;;;;;;;;-1.50;99.90;;;;;;5056692;28;19916;-77
2023/01/24 10:58:17;;;;;;;;;;;-1.50;99.90;;;;;;5052319;28;20372;-77
2023/01/24 11:00:43;;;;;;;;;;;-1.40;99.90;;;;;;5056228;28;19916;-77
2023/01/24 11:03:20;;;;;;;;;;;-1.30;99.90;;;;;;5056496;28;19909;-77
2023/01/24 11:05:50;;;;;;;;;;;-1.30;99.90;;;;;;5056265;28;19999;-77
2023/01/24 11:08:26;;;;;;;;;;;-1.30;99.90;;;;;;5055866;28;20015;-77
2023/01/24 11:10:58;;;;;;;;;;;-1.30;99.90;;;;;;5056388;28;19909;-77
2023/01/24 11:13:34;;;;;;;;;;;-1.30;99.90;;;;;;5056327;28;19913;-77
2023/01/24 11:16:04;;;;;;;;;;;-1.20;99.90;;;;;;5056109;28;19909;-77
2023/01/24 11:18:31;;;;;;;;;;;-1.20;99.90;;;;;;5055892;28;19909;-77
2023/01/24 11:21:05;;;;;;;;;;;-1.30;99.90;;;;;;5056314;28;20419;-77
2023/01/24 11:23:30;;;;;;;;;;;-1.20;99.90;;;;;;5055577;28;19948;-77
2023/01/24 11:25:58;;;;;;;;;;;-1.20;99.90;;;;;;5056368;28;19972;-77
2023/01/24 11:28:30;;;;;;;;;;;-1.10;99.90;;;;;;5055877;28;20456;-77
2023/01/24 11:30:58;;;;;;;;;;;-1.10;99.90;;;;;;5056232;28;19963;-77
2023/01/24 11:33:34;;;;;;;;;;;-1.00;99.90;;;;;;5055880;28;20284;-77
2023/01/24 11:36:06;;;;;;;;;;;-0.90;99.90;;;;;;5055521;28;19909;-77
2023/01/24 11:38:35;;;;;;;;;;;-0.90;99.90;;;;;;5055264;28;19915;-77
2023/01/24 11:41:03;;;;;;;;;;;-1.00;99.90;;;;;;5055813;28;20380;-75
2023/01/24 11:43:47;;;;;;;;;;;-1.00;99.90;;;;;;5055455;28;19916;-77
2023/01/24 11:46:15;;;;;;;;;;;-1.10;99.90;;;;;;5055249;28;19958;-77
2023/01/24 11:48:48;;;;;;;;;;;-1.20;99.90;;;;;;5055216;28;19908;-77
2023/01/24 11:51:13;;;;;;;;;;;-1.20;99.90;;;;;;5050593;28;19909;-77
2023/01/24 11:53:57;;;;;;;;;;;-1.20;99.90;;;;;;5035435;28;19913;-77
2023/01/24 11:56:29;;;;;;;;;;;-1.20;99.90;;;;;;5035725;28;19913;-77
2023/01/24 11:58:54;;;;;;;;;;;-1.20;99.90;;;;;;5035425;28;19909;-77
2023/01/24 12:01:38;;;;;;;;;;;-1.00;99.90;;;;;;5035516;28;19909;-77
2023/01/24 12:04:16;;;;;;;;;;;-0.90;99.90;;;;;;5035343;28;19916;-77
2023/01/24 12:06:51;;;;;;;;;;;-0.80;99.90;;;;;;5035208;28;19909;-77
2023/01/24 12:09:20;;;;;;;;;;;-0.70;99.90;;;;;;5035086;28;20403;-77
2023/01/24 12:12:05;;;;;;;;;;;-0.60;99.90;;;;;;5035341;28;19932;-77
2023/01/24 12:14:38;;;;;;;;;;;-0.60;99.90;;;;;;5035115;28;19913;-77
2023/01/24 12:17:22;;;;;;;;;;;-0.50;99.90;;;;;;5047653;28;19913;-77
2023/01/24 12:19:58;;;;;;;;;;;-0.50;99.90;;;;;;5067774;28;19919;-77
2023/01/24 12:22:27;;;;;;;;;;;-0.40;99.90;;;;;;5050583;28;19913;-77
2023/01/24 12:24:57;;;;;;;;;;;-0.40;99.90;;;;;;5053982;28;20284;-77
2023/01/24 12:27:25;;;;;;;;;;;-0.30;99.90;;;;;;5054826;28;20388;-78
2023/01/24 12:30:27;;;;;;;;;;;-0.30;99.90;;;;;;5053502;28;19963;-77
2023/01/24 12:32:56;;;;;;;;;;;-0.40;99.90;;;;;;5021272;28;19914;-77
2023/01/24 12:35:26;;;;;;;;;;;-0.70;99.90;;;;;;5030835;28;19909;-77
2023/01/24 12:37:57;;;;;;;;;;;-0.70;99.90;;;;;;5045203;28;19958;-77
2023/01/24 12:40:38;;;;;;;;;;;-0.70;99.90;;;;;;5054499;28;19913;-77
2023/01/24 12:43:06;;;;;;;;;;;-0.70;99.90;;;;;;5048890;28;19920;-77
2023/01/24 12:45:40;;;;;;;;;;;-0.70;99.90;;;;;;5052587;28;19920;-77
2023/01/24 12:48:25;;;;;;;;;;;-0.70;99.90;;;;;;5053284;28;19948;-77
2023/01/24 12:51:16;;;;;;;;;;;-0.60;99.90;;;;;;5054266;28;19916;-77
2023/01/24 12:53:45;;;;;;;;;;;-0.50;99.90;;;;;;5050156;28;19919;-77
2023/01/24 12:56:16;;;;;;;;;;;-0.40;99.90;;;;;;5052919;28;20364;-77
2023/01/24 12:58:45;;;;;;;;;;;-0.30;99.90;;;;;;5054132;28;20333;-77
2023/01/24 13:01:19;;;;;;;;;;;-0.30;99.90;;;;;;5054192;28;19947;-77
2023/01/24 13:03:55;;;;;;;;;;;-0.30;99.90;;;;;;5054146;28;19909;-77
2023/01/24 13:06:39;;;;;;;;;;;-0.30;99.90;;;;;;5054029;28;19916;-77
2023/01/24 13:09:08;;;;;;;;;;;-0.30;99.90;;;;;;5052767;28;19955;-77
2023/01/24 13:11:40;;;;;;;;;;;-0.40;99.90;;;;;;5054386;28;19916;-77
2023/01/24 13:14:20;;;;;;;;;;;-0.40;99.90;;;;;;5055438;28;20000;-74
2023/01/24 13:16:48;;;;;;;;;;;-0.40;99.90;;;;;;5055190;28;20028;-77
2023/01/24 13:19:15;;;;;;;;;;;-0.40;99.90;;;;;;5053898;28;19916;-77
2023/01/24 13:21:53;;;;;;;;;;;-0.40;99.90;;;;;;5053630;28;19955;-77
2023/01/24 13:24:27;;;;;;;;;;;-0.40;99.90;;;;;;5053866;28;19908;-77
2023/01/24 13:26:56;;;;;;;;;;;-0.40;99.90;;;;;;5053730;28;20349;-76
2023/01/24 13:29:30;;;;;;;;;;;-0.50;99.90;;;;;;5053614;28;20357;-77
2023/01/24 13:31:59;;;;;;;;;;;-0.50;99.90;;;;;;5053829;28;19909;-77
2023/01/24 13:34:29;;;;;;;;;;;-0.50;99.90;;;;;;5053652;28;19959;-77
2023/01/24 13:36:55;;;;;;;;;;;-0.50;99.90;;;;;;5053791;28;19916;-77
2023/01/24 13:39:32;;;;;;;;;;;-0.50;99.90;;;;;;5052556;28;19913;-76
2023/01/24 13:42:21;;;;;;;;;;;-0.60;99.90;;;;;;5053735;28;20377;-77
2023/01/24 13:44:47;;;;;;;;;;;-0.60;99.90;;;;;;5043513;28;20349;-77
2023/01/24 13:47:12;;;;;;;;;;;-0.60;99.90;;;;;;5052986;28;19909;-77
2023/01/24 13:49:43;;;;;;;;;;;-0.70;99.90;;;;;;5053951;28;19909;-78
2023/01/24 13:52:27;;;;;;;;;;;-0.70;99.90;;;;;;5053736;28;19915;-77
2023/01/24 13:54:52;;;;;;;;;;;-0.80;99.90;;;;;;5053869;28;19971;-77
2023/01/24 13:57:38;;;;;;;;;;;-0.80;99.90;;;;;;5053629;28;19986;-77
2023/01/24 14:00:09;;;;;;;;;;;-0.90;99.90;;;;;;5053796;28;20376;-77
2023/01/24 14:02:47;;;;;;;;;;;-0.90;99.90;;;;;;5053786;28;19916;-77
2023/01/24 14:05:28;;;;;;;;;;;-0.90;99.90;;;;;;5052186;28;19983;-78
2023/01/24 14:07:58;;;;;;;;;;;-0.90;99.90;;;;;;5053275;28;19944;-77
2023/01/24 14:10:34;;;;;;;;;;;-0.90;99.90;;;;;;5053963;28;19908;-77
2023/01/24 14:12:59;;;;;;;;;;;-1.00;99.90;;;;;;5057366;28;19909;-77
2023/01/24 14:15:29;;;;;;;;;;;-1.00;99.90;;;;;;5057728;28;20050;-77
2023/01/24 14:17:55;;;;;;;;;;;-1.00;99.90;;;;;;5057249;28;20011;-77
2023/01/24 14:20:30;;;;;;;;;;;-1.00;99.90;;;;;;5039390;28;19913;-77
2023/01/24 14:22:58;;;;;;;;;;;-0.90;99.90;;;;;;5056922;28;19910;-77
2023/01/24 14:25:53;;;;;;;;;;;-0.90;99.90;;;;;;5057474;28;19909;-77
2023/01/24 14:28:24;;;;;;;;;;;-0.90;99.90;;;;;;5043709;28;19952;-76
2023/01/24 14:30:54;;;;;;;;;;;-0.90;99.90;;;;;;5057582;28;19913;-77
2023/01/24 14:33:20;;;;;;;;;;;-0.90;99.90;;;;;;5056912;28;19966;-77
2023/01/24 14:36:01;;;;;;;;;;;-0.90;99.90;;;;;;5055594;28;19913;-77
2023/01/24 14:38:26;;;;;;;;;;;-0.90;99.90;;;;;;5056551;28;19909;-77
2023/01/24 14:40:54;;;;;;;;;;;-0.90;99.90;;;;;;5057017;28;20276;-77
2023/01/24 14:43:20;;;;;;;;;;;-0.80;99.90;;;;;;5056736;28;20364;-78
2023/01/24 14:45:46;;;;;;;;;;;-0.90;99.90;;;;;;5056581;28;20384;-77
2023/01/24 14:48:16;;;;;;;;;;;-0.90;99.90;;;;;;5057013;28;19913;-77
2023/01/24 14:50:42;;;;;;;;;;;-1.00;99.90;;;;;;5056734;28;19916;-77
2023/01/24 14:53:27;;;;;;;;;;;-1.00;99.90;;;;;;5056344;28;19917;-77
2023/01/24 14:55:53;;;;;;;;;;;-1.00;99.90;;;;;;5056823;28;19915;-77
2023/01/24 14:58:20;;;;;;;;;;;-1.00;99.90;;;;;;5056395;28;19995;-77
2023/01/24 15:00:46;;;;;;;;;;;-1.10;99.90;;;;;;5055350;28;19909;-77
2023/01/24 15:03:17;;;;;;;;;;;-1.10;99.90;;;;;;5057177;28;19913;-78
2023/01/24 15:05:48;;;;;;;;;;;-1.10;99.90;;;;;;5056984;28;20326;-77